Time;durP1;ratioP1;P1;durP2;ratioP2;P2;SDS_P1;SDS_P2;PMS_P1;PMS_P2;Temp;Humidity;BMP_temperature;BMP_pressure;BME280_temperature;BME280_humidity;BME280_pressure;Samples;Min_cycle;Max_cycle;Signal;HPM_P1;HPM_P2
2024/01/23 00:00:07;;;;;;;28.65;23.67;;;;;;;3.19;100.00;97137.72;5071602;28;20030;-70
2024/01/23 00:02:32;;;;;;;29.48;24.02;;;;;;;3.25;100.00;97147.91;5071501;28;20516;-69
2024/01/23 00:04:58;;;;;;;28.27;21.48;;;;;;;3.28;100.00;97155.59;5062447;28;20112;-70
2024/01/23 00:07:23;;;;;;;23.73;20.80;;;;;;;3.31;100.00;97163.28;5069283;28;20035;-69
2024/01/23 00:09:48;;;;;;;22.90;19.73;;;;;;;3.29;100.00;97165.09;5073165;28;20063;-69
2024/01/23 00:12:14;;;;;;;24.33;21.73;;;;;;;3.24;100.00;97172.25;5065361;28;20004;-69
2024/01/23 00:14:39;;;;;;;25.10;20.70;;;;;;;3.16;100.00;97177.75;5061094;28;20021;-69
2024/01/23 00:17:04;;;;;;;25.83;21.77;;;;;;;3.12;100.00;97182.22;5068759;28;20021;-70
2024/01/23 00:19:30;;;;;;;28.55;22.02;;;;;;;3.13;100.00;97178.72;5065291;28;20052;-70
2024/01/23 00:21:55;;;;;;;24.50;20.42;;;;;;;3.14;100.00;97177.78;5074446;28;20111;-69
2024/01/23 00:24:21;;;;;;;24.23;19.92;;;;;;;3.21;100.00;97195.81;5070554;28;20024;-70
2024/01/23 00:26:46;;;;;;;25.38;21.63;;;;;;;3.46;100.00;97181.81;5066385;28;20051;-69
2024/01/23 00:29:11;;;;;;;39.88;25.67;;;;;;;3.61;100.00;97178.56;5072030;28;20056;-69
2024/01/23 00:31:37;;;;;;;21.40;16.25;;;;;;;3.67;100.00;97160.13;5071828;28;20020;-70
2024/01/23 00:34:03;;;;;;;25.75;18.67;;;;;;;3.61;100.00;97164.72;5060855;28;20016;-70
2024/01/23 00:36:29;;;;;;;21.63;16.63;;;;;;;3.49;100.00;97177.31;5069294;28;20060;-70
2024/01/23 00:38:54;;;;;;;21.88;16.92;;;;;;;3.42;100.00;97166.28;5067877;28;20028;-70
2024/01/23 00:41:20;;;;;;;24.90;17.33;;;;;;;3.39;100.00;97170.78;5071303;28;20045;-69
2024/01/23 00:43:45;;;;;;;29.23;20.23;;;;;;;3.43;100.00;97170.63;5071765;28;20036;-69
2024/01/23 00:46:10;;;;;;;22.45;18.00;;;;;;;3.37;100.00;97167.41;5074826;28;20024;-70
2024/01/23 00:48:36;;;;;;;23.10;17.20;;;;;;;3.35;100.00;97158.81;5075701;28;20078;-70
2024/01/23 00:51:01;;;;;;;26.23;19.95;;;;;;;3.32;100.00;97149.34;5073536;28;20029;-70
2024/01/23 00:53:27;;;;;;;22.50;18.33;;;;;;;3.32;100.00;97141.53;5075076;28;20106;-69
2024/01/23 00:55:52;;;;;;;19.63;16.73;;;;;;;3.34;100.00;97147.53;5075764;28;20036;-69
2024/01/23 00:58:17;;;;;;;23.55;16.95;;;;;;;3.33;100.00;97147.63;5071932;28;20024;-69
2024/01/23 01:00:45;;;;;;;23.42;15.98;;;;;;;3.34;100.00;97162.31;5074379;28;20085;-70
2024/01/23 01:03:11;;;;;;;26.60;20.95;;;;;;;3.37;100.00;97162.19;5067574;28;20024;-70
2024/01/23 01:05:37;;;;;;;35.38;24.40;;;;;;;3.53;100.00;97172.84;5074122;28;20048;-70
2024/01/23 01:08:04;;;;;;;22.20;17.30;;;;;;;3.58;100.00;97184.78;5063615;28;20104;-70
2024/01/23 01:10:30;;;;;;;13.50;9.65;;;;;;;4.00;100.00;97200.47;5066080;28;20732;-70
2024/01/23 01:12:55;;;;;;;16.55;13.50;;;;;;;4.26;100.00;97208.94;5064165;28;20052;-69
2024/01/23 01:15:21;;;;;;;13.45;11.20;;;;;;;4.17;100.00;97204.97;5060196;28;20029;-69
2024/01/23 01:17:46;;;;;;;15.77;13.95;;;;;;;4.21;100.00;97211.72;5065757;28;20052;-69
2024/01/23 01:20:12;;;;;;;12.50;10.88;;;;;;;4.25;100.00;97209.84;5060176;28;20081;-69
2024/01/23 01:22:38;;;;;;;14.50;12.98;;;;;;;4.03;100.00;97191.66;5068675;28;20288;-69
2024/01/23 01:25:04;;;;;;;26.23;17.85;;;;;;;3.86;100.00;97195.81;5068209;28;20058;-70
2024/01/23 01:27:29;;;;;;;26.80;19.42;;;;;;;3.82;100.00;97215.09;5075949;28;20402;-69
2024/01/23 01:29:55;;;;;;;33.95;20.77;;;;;;;3.79;100.00;97215.22;5070186;28;20036;-70
2024/01/23 01:32:20;;;;;;;30.02;22.83;;;;;;;3.81;100.00;97202.97;5060606;28;20032;-69
2024/01/23 01:34:46;;;;;;;27.95;22.60;;;;;;;3.79;100.00;97204.78;5070704;28;20441;-70
2024/01/23 01:37:11;;;;;;;28.10;21.13;;;;;;;3.73;100.00;97191.13;5072323;28;20057;-70
2024/01/23 01:39:37;;;;;;;23.70;18.95;;;;;;;3.72;100.00;97197.22;5070781;28;20020;-69
2024/01/23 01:42:03;;;;;;;24.08;19.20;;;;;;;3.65;100.00;97208.81;5069661;28;20056;-69
2024/01/23 01:44:31;;;;;;;22.70;17.58;;;;;;;3.59;100.00;97222.06;5061455;28;20418;-69
2024/01/23 01:46:57;;;;;;;18.00;15.10;;;;;;;3.65;100.00;97229.66;5069960;28;20029;-69
2024/01/23 01:49:22;;;;;;;13.40;12.10;;;;;;;3.61;100.00;97230.66;5072201;28;20035;-69
2024/01/23 01:51:48;;;;;;;13.50;11.85;;;;;;;3.54;100.00;97221.41;5065160;28;20545;-70
2024/01/23 01:54:15;;;;;;;14.75;11.30;;;;;;;3.43;100.00;97230.50;5068232;28;20039;-69
2024/01/23 01:56:41;;;;;;;14.13;10.18;;;;;;;3.37;100.00;97225.50;5067669;28;20051;-69
2024/01/23 01:59:07;;;;;;;12.07;10.52;;;;;;;3.31;100.00;97220.56;5072279;28;20043;-70
2024/01/23 02:01:33;;;;;;;13.18;10.60;;;;;;;3.23;100.00;97233.03;5062088;28;20047;-69
2024/01/23 02:03:59;;;;;;;11.82;10.15;;;;;;;3.09;100.00;97242.19;5067543;28;20028;-70
2024/01/23 02:06:24;;;;;;;12.18;9.73;;;;;;;2.99;100.00;97251.25;5073441;28;20475;-69
2024/01/23 02:08:50;;;;;;;12.07;10.77;;;;;;;3.05;100.00;97245.81;5063487;28;20029;-69
2024/01/23 02:11:16;;;;;;;11.77;9.27;;;;;;;3.02;100.00;97232.94;5064331;28;20111;-69
2024/01/23 02:13:41;;;;;;;28.23;14.32;;;;;;;3.05;100.00;97253.63;5075779;28;20503;-70
2024/01/23 02:16:08;;;;;;;70.30;31.52;;;;;;;2.98;100.00;97268.63;5068525;28;20084;-69
2024/01/23 02:18:33;;;;;;;45.80;23.88;;;;;;;2.94;100.00;97274.84;5059350;28;20029;-69
2024/01/23 02:20:59;;;;;;;32.92;17.45;;;;;;;2.98;100.00;97260.81;5072364;28;20519;-69
2024/01/23 02:23:28;;;;;;;25.58;17.48;;;;;;;3.12;100.00;97255.09;5065762;28;20032;-70
2024/01/23 02:25:54;;;;;;;19.48;14.45;;;;;;;3.01;100.00;97259.84;5070552;28;20041;-69
2024/01/23 02:28:19;;;;;;;31.52;17.63;;;;;;;2.93;100.00;97251.47;5069011;28;20035;-69
2024/01/23 02:30:45;;;;;;;20.25;13.75;;;;;;;2.84;100.00;97273.47;5068626;28;20533;-70
2024/01/23 02:33:10;;;;;;;19.65;11.98;;;;;;;2.80;100.00;97284.88;5070031;28;20020;-69
2024/01/23 02:35:37;;;;;;;12.50;9.63;;;;;;;2.75;100.00;97295.44;5063455;28;20033;-69
2024/01/23 02:38:03;;;;;;;12.23;8.25;;;;;;;2.74;100.00;97295.50;5070839;28;20043;-70
2024/01/23 02:40:28;;;;;;;13.82;8.05;;;;;;;2.76;100.00;97291.09;5069917;28;20107;-69
2024/01/23 02:42:54;;;;;;;10.45;8.55;;;;;;;2.81;100.00;97290.03;5073922;28;20397;-70
2024/01/23 02:45:20;;;;;;;24.23;17.75;;;;;;;2.86;100.00;97293.31;5071074;28;20317;-69
2024/01/23 02:47:45;;;;;;;18.67;14.43;;;;;;;2.90;100.00;97303.63;5063788;28;20029;-69
2024/01/23 02:50:11;;;;;;;18.38;14.88;;;;;;;2.89;100.00;97309.72;5075049;28;20059;-70
2024/01/23 02:52:37;;;;;;;15.13;10.45;;;;;;;2.89;100.00;97310.59;5071041;28;20485;-70
2024/01/23 02:55:04;;;;;;;10.70;8.30;;;;;;;2.99;100.00;97311.09;5065792;28;20033;-69
2024/01/23 02:57:29;;;;;;;37.92;21.75;;;;;;;3.10;100.00;97316.75;5066949;28;20115;-69
2024/01/23 02:59:55;;;;;;;54.85;28.85;;;;;;;3.12;100.00;97306.31;5061597;28;20071;-70
2024/01/23 03:02:21;;;;;;;16.83;10.30;;;;;;;3.13;100.00;97321.84;5068874;28;20040;-70
2024/01/23 03:04:47;;;;;;;17.90;10.80;;;;;;;3.11;100.00;97308.03;5066860;28;20115;-69
2024/01/23 03:07:13;;;;;;;17.00;9.77;;;;;;;3.07;100.00;97306.47;5067844;28;20052;-69
2024/01/23 03:09:38;;;;;;;12.77;7.95;;;;;;;3.07;100.00;97301.25;5072773;28;20408;-69
2024/01/23 03:12:21;;;;;;;9.15;6.93;;;;;;;3.11;100.00;97308.03;5072810;28;20043;-69
2024/01/23 03:14:48;;;;;;;12.98;7.88;;;;;;;3.09;100.00;97315.06;5062194;28;20029;-69
2024/01/23 03:17:14;;;;;;;61.30;48.78;;;;;;;3.12;100.00;97320.16;5064709;28;20158;-69
2024/01/23 03:19:41;;;;;;;31.48;23.92;;;;;;;3.14;100.00;97307.94;5056591;28;20044;-69
2024/01/23 03:22:07;;;;;;;6.32;4.65;;;;;;;3.34;100.00;97301.13;5076754;28;20031;-70
2024/01/23 03:24:33;;;;;;;7.30;4.43;;;;;;;3.27;100.00;97302.28;5069071;28;20025;-70
2024/01/23 03:26:59;;;;;;;6.90;6.03;;;;;;;3.20;100.00;97300.78;5055874;28;20025;-69
2024/01/23 03:29:25;;;;;;;18.95;13.52;;;;;;;3.11;100.00;97302.84;5071249;28;20028;-69
2024/01/23 03:31:51;;;;;;;11.20;8.25;;;;;;;3.11;100.00;97300.25;5065132;28;20021;-69
2024/01/23 03:34:19;;;;;;;11.27;8.50;;;;;;;3.04;100.00;97314.38;5054956;28;20025;-69
2024/01/23 03:36:45;;;;;;;15.32;12.20;;;;;;;3.02;100.00;97308.41;5065139;28;20029;-69
2024/01/23 03:39:10;;;;;;;9.65;8.75;;;;;;;2.94;100.00;97311.28;5057601;28;20032;-69
2024/01/23 03:41:37;;;;;;;12.80;9.60;;;;;;;2.88;100.00;97305.44;5058816;28;20104;-69
2024/01/23 03:44:05;;;;;;;16.52;11.15;;;;;;;2.90;100.00;97308.81;5063065;28;20102;-70
2024/01/23 03:46:30;;;;;;;18.65;12.20;;;;;;;3.01;100.00;97311.91;5062537;28;20379;-69
2024/01/23 03:48:56;;;;;;;14.00;9.32;;;;;;;3.06;100.00;97309.97;5056333;28;20024;-69
2024/01/23 03:51:21;;;;;;;15.75;13.02;;;;;;;2.91;100.00;97315.72;5075244;28;20056;-69
2024/01/23 03:53:47;;;;;;;12.95;9.02;;;;;;;2.77;100.00;97301.47;5056863;28;20076;-69
2024/01/23 03:56:12;;;;;;;12.13;7.53;;;;;;;2.63;100.00;97307.13;5058888;28;20041;-69
2024/01/23 03:58:37;;;;;;;9.48;7.90;;;;;;;2.53;100.00;97304.00;5058003;28;20111;-69
2024/01/23 04:01:03;;;;;;;10.82;7.75;;;;;;;2.42;100.00;97306.94;5060901;28;20938;-70
2024/01/23 04:03:28;;;;;;;9.55;7.68;;;;;;;2.36;100.00;97309.78;5054763;28;20089;-69
2024/01/23 04:05:54;;;;;;;12.43;7.35;;;;;;;2.32;100.00;97307.31;5054419;28;20025;-69
2024/01/23 04:08:19;;;;;;;13.48;12.18;;;;;;;2.35;100.00;97307.25;5057577;28;20035;-70
2024/01/23 04:10:45;;;;;;;11.18;10.07;;;;;;;2.28;100.00;97310.03;5072319;28;20032;-69
2024/01/23 04:13:10;;;;;;;12.15;10.52;;;;;;;2.21;100.00;97307.66;5070311;28;20029;-69
2024/01/23 04:15:36;;;;;;;10.75;8.95;;;;;;;2.15;100.00;97311.34;5065539;28;20024;-69
2024/01/23 04:18:02;;;;;;;10.38;8.55;;;;;;;2.11;100.00;97309.75;5072171;28;20041;-69
2024/01/23 04:20:28;;;;;;;9.68;8.38;;;;;;;2.09;100.00;97303.72;5058500;28;20024;-70
2024/01/23 04:22:53;;;;;;;9.57;8.57;;;;;;;2.09;100.00;97301.13;5061953;28;20073;-69
2024/01/23 04:25:18;;;;;;;9.10;7.38;;;;;;;2.07;100.00;97306.38;5060689;28;20116;-69
2024/01/23 04:27:44;;;;;;;9.95;8.82;;;;;;;2.02;100.00;97310.03;5070851;28;20040;-69
2024/01/23 04:30:09;;;;;;;10.10;9.10;;;;;;;1.96;100.00;97317.13;5058496;28;20059;-69
2024/01/23 04:32:35;;;;;;;8.82;7.93;;;;;;;1.90;100.00;97311.28;5079183;28;20032;-70
2024/01/23 04:35:00;;;;;;;9.05;7.50;;;;;;;1.91;100.00;97308.63;5071070;28;20647;-69
2024/01/23 04:37:26;;;;;;;9.02;8.00;;;;;;;1.82;100.00;97308.91;5062443;28;20021;-69
2024/01/23 04:39:51;;;;;;;8.30;7.50;;;;;;;1.71;100.00;97317.91;5061259;28;20075;-69
2024/01/23 04:42:17;;;;;;;12.23;7.30;;;;;;;1.66;100.00;97324.97;5058841;28;20049;-69
2024/01/23 04:44:42;;;;;;;7.50;6.80;;;;;;;1.57;100.00;97326.09;5075625;28;20032;-69
2024/01/23 04:47:07;;;;;;;8.02;7.22;;;;;;;1.54;100.00;97338.31;5058058;28;20056;-69
2024/01/23 04:49:33;;;;;;;11.48;8.55;;;;;;;1.52;100.00;97343.53;5067999;28;20074;-69
2024/01/23 04:51:58;;;;;;;12.60;10.57;;;;;;;1.52;100.00;97353.94;5075741;28;20055;-69
2024/01/23 04:54:24;;;;;;;8.82;7.93;;;;;;;1.49;100.00;97360.97;5065346;28;20025;-69
2024/01/23 04:56:49;;;;;;;8.90;8.00;;;;;;;1.40;100.00;97355.13;5057669;28;20591;-69
2024/01/23 04:59:15;;;;;;;13.30;8.00;;;;;;;1.36;100.00;97371.69;5069802;28;20044;-69
2024/01/23 05:01:40;;;;;;;14.95;8.85;;;;;;;1.32;100.00;97379.59;5071322;28;20113;-69
2024/01/23 05:04:05;;;;;;;16.35;11.35;;;;;;;1.33;100.00;97386.53;5057601;28;20492;-69
2024/01/23 05:06:31;;;;;;;10.40;9.40;;;;;;;1.26;100.00;97384.06;5059694;28;20052;-69
2024/01/23 05:08:57;;;;;;;9.98;6.82;;;;;;;1.25;100.00;97386.72;5068033;28;20024;-69
2024/01/23 05:11:22;;;;;;;11.45;5.65;;;;;;;1.28;100.00;97381.44;5079234;28;20088;-69
2024/01/23 05:13:48;;;;;;;7.57;5.32;;;;;;;1.26;100.00;97373.69;5057858;28;20394;-69
2024/01/23 05:16:13;;;;;;;9.82;6.53;;;;;;;1.22;100.00;97382.47;5071090;28;20078;-69
2024/01/23 05:18:39;;;;;;;9.00;6.20;;;;;;;1.20;100.00;97383.41;5077430;28;20024;-69
2024/01/23 05:21:04;;;;;;;6.80;6.18;;;;;;;1.17;100.00;97381.75;5068203;28;20136;-69
2024/01/23 05:23:29;;;;;;;16.10;12.68;;;;;;;1.08;100.00;97388.03;5073450;28;20036;-69
2024/01/23 05:25:55;;;;;;;11.60;9.02;;;;;;;1.05;100.00;97382.94;5057347;28;20025;-69
2024/01/23 05:28:20;;;;;;;8.05;6.30;;;;;;;1.04;100.00;97386.44;5056184;28;20139;-70
2024/01/23 05:30:46;;;;;;;6.00;5.45;;;;;;;0.97;100.00;97405.63;5057080;28;20775;-69
2024/01/23 05:33:11;;;;;;;10.40;6.82;;;;;;;0.90;100.00;97407.53;5076806;28;20123;-69
2024/01/23 05:35:37;;;;;;;7.78;6.72;;;;;;;0.84;100.00;97402.50;5062397;28;20029;-69
2024/01/23 05:38:02;;;;;;;17.25;12.75;;;;;;;0.90;100.00;97404.09;5062998;28;20024;-69
2024/01/23 05:40:27;;;;;;;14.18;10.68;;;;;;;0.83;100.00;97411.16;5062013;28;20062;-68
2024/01/23 05:42:53;;;;;;;13.43;9.75;;;;;;;0.78;100.00;97407.84;5068409;28;20122;-69
2024/01/23 05:45:18;;;;;;;10.45;8.30;;;;;;;0.79;100.00;97407.81;5072943;28;20028;-69
2024/01/23 05:47:43;;;;;;;9.23;7.78;;;;;;;0.82;100.00;97412.06;5056369;28;20029;-69
2024/01/23 05:50:09;;;;;;;10.20;9.20;;;;;;;0.75;100.00;97407.94;5068933;28;20048;-69
2024/01/23 05:52:35;;;;;;;20.55;13.07;;;;;;;0.70;100.00;97402.84;5067004;28;20066;-69
2024/01/23 05:55:02;;;;;;;21.35;16.52;;;;;;;0.68;100.00;97405.50;5058993;28;20031;-69
2024/01/23 05:57:27;;;;;;;22.60;16.60;;;;;;;0.69;100.00;97401.16;5067672;28;20044;-69
2024/01/23 05:59:53;;;;;;;19.60;14.32;;;;;;;0.55;100.00;97398.91;5061042;28;20059;-69
2024/01/23 06:02:18;;;;;;;14.88;10.35;;;;;;;0.48;100.00;97405.16;5075156;28;20040;-69
2024/01/23 06:04:43;;;;;;;10.48;7.85;;;;;;;0.47;100.00;97409.47;5073113;28;20025;-69
2024/01/23 06:07:09;;;;;;;10.32;7.20;;;;;;;0.45;100.00;97408.66;5060211;28;20024;-69
2024/01/23 06:09:34;;;;;;;9.38;7.22;;;;;;;0.45;100.00;97408.66;5060490;28;20068;-69
2024/01/23 06:11:59;;;;;;;7.32;6.43;;;;;;;0.46;100.00;97412.94;5057254;28;20051;-69
2024/01/23 06:14:25;;;;;;;8.45;6.20;;;;;;;0.50;100.00;97418.91;5067396;28;20016;-69
2024/01/23 06:16:50;;;;;;;7.63;6.88;;;;;;;0.47;100.00;97429.38;5067298;28;20028;-69
2024/01/23 06:19:18;;;;;;;13.82;8.27;;;;;;;0.43;100.00;97423.38;5069238;28;20119;-69
2024/01/23 06:21:43;;;;;;;8.88;7.55;;;;;;;0.39;100.00;97421.75;5062086;28;20033;-69
2024/01/23 06:24:09;;;;;;;8.35;7.55;;;;;;;0.36;100.00;97427.88;5061470;28;20020;-69
2024/01/23 06:26:35;;;;;;;9.05;7.50;;;;;;;0.31;100.00;97434.91;5061879;28;20030;-69
2024/01/23 06:29:01;;;;;;;8.80;6.57;;;;;;;0.26;100.00;97437.59;5070390;28;20024;-69
2024/01/23 06:31:27;;;;;;;6.75;6.15;;;;;;;0.25;100.00;97435.06;5058732;28;20681;-69
2024/01/23 06:33:53;;;;;;;8.88;6.43;;;;;;;0.24;100.00;97434.19;5059683;28;20020;-69
2024/01/23 06:36:18;;;;;;;8.75;6.07;;;;;;;0.20;100.00;97447.22;5059961;28;20044;-69
2024/01/23 06:38:44;;;;;;;7.88;7.18;;;;;;;0.19;100.00;97451.56;5058887;28;20569;-68
2024/01/23 06:41:09;;;;;;;7.38;6.63;;;;;;;0.16;100.00;97446.47;5055850;28;20069;-69
2024/01/23 06:43:35;;;;;;;10.00;6.43;;;;;;;0.12;100.00;97450.03;5066603;28;20074;-69
2024/01/23 06:46:01;;;;;;;7.55;6.78;;;;;;;0.09;100.00;97450.06;5075730;28;20028;-69
2024/01/23 06:48:27;;;;;;;10.60;6.32;;;;;;;0.04;100.00;97449.31;5058641;28;20009;-70
2024/01/23 06:50:52;;;;;;;7.80;6.57;;;;;;;0.01;100.00;97452.84;5057282;28;20512;-69
2024/01/23 06:53:17;;;;;;;9.25;6.57;;;;;;;0.03;100.00;97463.16;5059635;28;20020;-69
2024/01/23 06:55:43;;;;;;;11.45;6.97;;;;;;;-0.02;100.00;97469.28;5058780;28;20017;-69
2024/01/23 06:58:08;;;;;;;11.73;7.32;;;;;;;-0.02;100.00;97477.06;5058370;28;20031;-69
2024/01/23 07:00:34;;;;;;;7.50;6.78;;;;;;;-0.02;100.00;97471.00;5066437;28;20052;-72
2024/01/23 07:02:59;;;;;;;10.80;8.52;;;;;;;-0.02;100.00;97473.59;5056084;28;20452;-70
2024/01/23 07:05:25;;;;;;;9.68;8.50;;;;;;;0.00;100.00;97471.88;5061783;28;20044;-69
2024/01/23 07:07:50;;;;;;;9.70;7.47;;;;;;;-0.02;100.00;97474.47;5060055;28;20040;-70
2024/01/23 07:10:16;;;;;;;11.38;7.78;;;;;;;-0.05;100.00;97482.31;5065989;28;20103;-70
2024/01/23 07:12:41;;;;;;;12.85;7.20;;;;;;;-0.10;100.00;97480.69;5058503;28;20158;-70
2024/01/23 07:15:06;;;;;;;7.38;5.60;;;;;;;-0.13;100.00;97471.25;5060413;28;20025;-69
2024/01/23 07:17:32;;;;;;;9.80;6.43;;;;;;;-0.13;100.00;97466.06;5068284;28;20013;-69
2024/01/23 07:19:58;;;;;;;7.10;6.38;;;;;;;-0.11;100.00;97474.69;5054653;28;20029;-69
2024/01/23 07:22:24;;;;;;;6.97;6.03;;;;;;;-0.13;100.00;97468.66;5065961;28;20025;-69
2024/01/23 07:24:49;;;;;;;11.75;6.00;;;;;;;-0.11;100.00;97481.59;5056491;28;20049;-70
2024/01/23 07:27:15;;;;;;;8.93;6.05;;;;;;;-0.10;100.00;97476.38;5058830;28;20096;-70
2024/01/23 07:29:40;;;;;;;16.02;11.45;;;;;;;-0.09;100.00;97475.50;5068533;28;20081;-69
2024/01/23 07:32:06;;;;;;;16.35;9.57;;;;;;;-0.11;100.00;97474.69;5065382;28;20047;-70
2024/01/23 07:34:32;;;;;;;13.90;9.57;;;;;;;-0.08;100.00;97476.34;5069012;28;20025;-69
2024/01/23 07:36:57;;;;;;;12.25;9.90;;;;;;;-0.13;100.00;97473.84;5060602;28;20021;-69
2024/01/23 07:39:23;;;;;;;13.10;10.40;;;;;;;-0.11;100.00;97479.00;5070753;28;20021;-69
2024/01/23 07:41:48;;;;;;;16.52;10.30;;;;;;;-0.12;100.00;97474.69;5067129;28;20428;-69
2024/01/23 07:44:14;;;;;;;17.52;11.90;;;;;;;-0.06;100.00;97474.56;5069914;28;20104;-69
2024/01/23 07:46:39;;;;;;;14.35;10.20;;;;;;;0.01;100.00;97473.56;5069960;28;20051;-70
2024/01/23 07:49:05;;;;;;;13.82;9.95;;;;;;;-0.01;100.00;97489.13;5066251;28;20025;-70
2024/01/23 07:51:47;;;;;;;12.82;10.65;;;;;;;-0.02;100.00;97490.00;5055847;28;20578;-69
2024/01/23 07:54:12;;;;;;;13.15;8.68;;;;;;;0.01;100.00;97493.41;5061884;28;20089;-69
2024/01/23 07:56:38;;;;;;;10.05;8.90;;;;;;;0.04;100.00;97495.94;5056524;28;20438;-68
2024/01/23 07:59:03;;;;;;;14.93;8.40;;;;;;;0.09;100.00;97501.88;5054465;28;20086;-69
2024/01/23 08:01:28;;;;;;;11.98;8.57;;;;;;;0.12;100.00;97500.06;5060718;28;20020;-69
2024/01/23 08:03:54;;;;;;;10.35;7.50;;;;;;;0.18;100.00;97506.88;5054350;28;20048;-70
2024/01/23 08:06:19;;;;;;;13.82;12.07;;;;;;;0.23;100.00;97515.38;5058026;28;20021;-70
2024/01/23 08:08:45;;;;;;;18.42;14.88;;;;;;;0.31;100.00;97510.03;5054523;28;20095;-70
2024/01/23 08:11:13;;;;;;;14.75;9.88;;;;;;;0.47;100.00;97515.72;5053927;28;20138;-70
2024/01/23 08:13:39;;;;;;;17.08;10.73;;;;;;;0.50;100.00;97530.38;5054771;28;20515;-70
2024/01/23 08:16:08;;;;;;;10.20;8.52;;;;;;;0.50;100.00;97536.38;5059135;28;20029;-70
2024/01/23 08:18:34;;;;;;;15.32;10.35;;;;;;;0.52;100.00;97531.19;5060108;28;20071;-70
2024/01/23 08:20:59;;;;;;;17.95;14.35;;;;;;;0.54;100.00;97529.41;5059261;28;20036;-70
2024/01/23 08:23:25;;;;;;;17.42;12.48;;;;;;;0.55;100.00;97529.38;5064578;28;20025;-70
2024/01/23 08:25:51;;;;;;;12.13;10.27;;;;;;;0.51;100.00;97534.66;5064136;28;20026;-70
2024/01/23 08:28:16;;;;;;;10.88;9.77;;;;;;;0.48;100.00;97532.97;5067179;28;20043;-70
2024/01/23 08:30:42;;;;;;;15.10;9.10;;;;;;;0.48;100.00;97529.56;5054588;28;20021;-70
2024/01/23 08:33:08;;;;;;;11.32;8.18;;;;;;;0.43;100.00;97530.47;5053867;28;20055;-70
2024/01/23 08:35:33;;;;;;;9.18;8.38;;;;;;;0.39;100.00;97531.44;5058763;28;20028;-70
2024/01/23 08:37:58;;;;;;;11.80;9.38;;;;;;;0.42;100.00;97540.91;5054180;28;20017;-70
2024/01/23 08:40:24;;;;;;;16.05;12.48;;;;;;;0.41;100.00;97539.19;5067431;28;20032;-70
2024/01/23 08:42:49;;;;;;;18.10;12.68;;;;;;;0.47;100.00;97533.03;5054422;28;20041;-70
2024/01/23 08:45:15;;;;;;;17.73;12.70;;;;;;;0.49;100.00;97529.50;5070425;28;20032;-70
2024/01/23 08:47:40;;;;;;;17.30;11.77;;;;;;;0.49;100.00;97534.69;5063051;28;20029;-70
2024/01/23 08:50:06;;;;;;;18.40;12.52;;;;;;;0.48;100.00;97539.91;5055086;28;20048;-70
2024/01/23 08:52:31;;;;;;;13.88;12.43;;;;;;;0.42;100.00;97541.72;5054884;28;20021;-70
2024/01/23 08:54:57;;;;;;;17.17;13.25;;;;;;;0.41;100.00;97539.19;5054837;28;20465;-70
2024/01/23 08:57:24;;;;;;;21.58;16.25;;;;;;;0.48;100.00;97535.56;5059564;28;20103;-70
2024/01/23 08:59:49;;;;;;;25.70;18.00;;;;;;;0.51;100.00;97524.28;5057558;28;20017;-70
2024/01/23 09:02:14;;;;;;;28.63;17.95;;;;;;;0.54;100.00;97519.03;5065684;28;20031;-70
2024/01/23 09:04:40;;;;;;;16.67;14.77;;;;;;;0.49;100.00;97521.72;5060448;28;20039;-71
2024/01/23 09:07:05;;;;;;;17.40;15.50;;;;;;;0.49;100.00;97520.88;5066263;28;20157;-70
2024/01/23 09:09:31;;;;;;;21.73;16.67;;;;;;;0.50;100.00;97517.41;5069234;28;20024;-70
2024/01/23 09:11:56;;;;;;;19.75;17.60;;;;;;;0.52;100.00;97515.63;5068422;28;20035;-69
2024/01/23 09:14:21;;;;;;;24.38;18.13;;;;;;;0.55;100.00;97512.97;5061438;28;20023;-69
2024/01/23 09:16:47;;;;;;;22.77;17.63;;;;;;;0.53;100.00;97512.97;5058423;28;20032;-69
2024/01/23 09:19:14;;;;;;;23.25;19.00;;;;;;;0.54;100.00;97519.88;5057802;28;20075;-69
2024/01/23 09:21:39;;;;;;;19.80;17.73;;;;;;;0.62;100.00;97521.47;5072685;28;20031;-69
2024/01/23 09:24:05;;;;;;;29.48;19.70;;;;;;;1.03;100.00;97509.25;5077850;28;20621;-70
2024/01/23 09:26:31;;;;;;;24.38;20.23;;;;;;;1.39;100.00;97514.34;5058136;28;20418;-70
2024/01/23 09:28:56;;;;;;;29.90;22.33;;;;;;;1.95;100.00;97506.78;5073238;28;20024;-70
2024/01/23 09:31:22;;;;;;;30.48;21.45;;;;;;;2.40;100.00;97506.34;5057852;28;20386;-70
2024/01/23 09:33:48;;;;;;;25.08;21.30;;;;;;;2.84;100.00;97510.19;5069496;28;20031;-70
2024/01/23 09:36:14;;;;;;;27.10;21.73;;;;;;;3.23;100.00;97509.78;5058307;28;20025;-70
2024/01/23 09:38:39;;;;;;;29.60;24.23;;;;;;;3.63;100.00;97507.56;5057320;28;20055;-70
2024/01/23 09:41:11;;;;;;;19.35;17.33;;;;;;;4.03;100.00;97517.44;5075414;28;20501;-70
2024/01/23 09:43:41;;;;;;;16.02;13.43;;;;;;;4.38;100.00;97515.28;5066733;28;20032;-70
2024/01/23 09:46:11;;;;;;;15.05;12.70;;;;;;;4.71;100.00;97528.78;5060877;28;20747;-70
2024/01/23 09:48:37;;;;;;;12.27;5.63;;;;;;;4.99;100.00;97539.91;5057720;28;20029;-71
2024/01/23 09:51:08;;;;;;;8.57;5.70;;;;;;;5.20;100.00;97547.78;5070170;28;20501;-70
2024/01/23 09:53:34;;;;;;;13.18;6.20;;;;;;;5.48;100.00;97563.13;5056920;28;20537;-71
2024/01/23 09:56:00;;;;;;;7.43;3.90;;;;;;;5.69;100.00;97592.75;5057001;28;20036;-71
2024/01/23 09:58:25;;;;;;;3.97;2.80;;;;;;;5.92;100.00;97624.91;5058572;28;20013;-71
2024/01/23 10:00:52;;;;;;;6.22;4.82;;;;;;;6.10;100.00;97646.81;5066273;28;20043;-71
2024/01/23 10:03:18;;;;;;;7.82;5.00;;;;;;;6.25;100.00;97673.25;5056146;28;20398;-71
2024/01/23 10:05:43;;;;;;;12.05;9.52;;;;;;;6.22;100.00;97692.53;5056419;28;20028;-71
2024/01/23 10:08:09;;;;;;;12.00;8.82;;;;;;;6.17;100.00;97720.66;5070817;28;20092;-71
2024/01/23 10:10:35;;;;;;;7.30;3.72;;;;;;;6.10;100.00;97729.66;5063582;28;20020;-71
2024/01/23 10:13:00;;;;;;;9.82;3.67;;;;;;;6.06;100.00;97744.63;5073719;28;20024;-71
2024/01/23 10:15:26;;;;;;;8.32;4.35;;;;;;;5.99;100.00;97744.00;5069449;28;20015;-71
2024/01/23 10:17:53;;;;;;;6.28;3.17;;;;;;;6.01;100.00;97752.66;5062084;28;20052;-71
2024/01/23 10:20:19;;;;;;;11.55;6.07;;;;;;;5.99;100.00;97754.44;5063250;28;20025;-71
2024/01/23 10:22:45;;;;;;;10.85;5.78;;;;;;;6.06;100.00;97754.22;5062322;28;20041;-71
2024/01/23 10:25:19;;;;;;;7.05;4.35;;;;;;;6.20;100.00;97753.69;5067829;28;20122;-71
2024/01/23 10:27:44;;;;;;;8.27;3.97;;;;;;;6.23;100.00;97754.38;5074208;28;20020;-71
2024/01/23 10:30:10;;;;;;;9.27;4.18;;;;;;;6.38;100.00;97749.44;5067582;28;20111;-71
2024/01/23 10:32:36;;;;;;;9.75;5.03;;;;;;;6.56;100.00;97768.72;5058637;28;20852;-71
2024/01/23 10:35:03;;;;;;;6.07;3.80;;;;;;;6.66;100.00;97764.81;5066581;28;20549;-71
2024/01/23 10:37:28;;;;;;;6.82;3.70;;;;;;;6.72;100.00;97779.38;5069397;28;20040;-71
2024/01/23 10:39:54;;;;;;;6.90;3.45;;;;;;;6.83;100.00;97769.28;5065807;28;20489;-72
2024/01/23 10:42:20;;;;;;;7.13;3.72;;;;;;;6.97;100.00;97773.09;5059255;28;20045;-72
2024/01/23 10:44:49;;;;;;;7.90;3.85;;;;;;;7.14;100.00;97772.31;5059927;28;20406;-71
2024/01/23 10:47:15;;;;;;;11.25;5.03;;;;;;;7.32;100.00;97770.63;5055651;28;20112;-71
2024/01/23 10:49:42;;;;;;;8.60;5.20;;;;;;;7.48;100.00;97762.06;5055977;28;20488;-71
2024/01/23 10:52:09;;;;;;;10.18;6.43;;;;;;;7.60;100.00;97758.84;5058627;28;20460;-72
2024/01/23 10:54:42;;;;;;;8.02;3.65;;;;;;;7.47;100.00;97731.53;5067641;28;20405;-72
2024/01/23 10:57:14;;;;;;;5.85;3.28;;;;;;;7.31;100.00;97738.34;5056592;28;20536;-72
2024/01/23 10:59:41;;;;;;;8.25;5.78;;;;;;;7.40;100.00;97739.66;5063719;28;20111;-72
2024/01/23 11:02:20;;;;;;;10.02;5.07;;;;;;;7.50;100.00;97745.31;5065080;28;20106;-72
2024/01/23 11:04:46;;;;;;;6.03;4.25;;;;;;;7.52;100.00;97743.50;5056050;28;20033;-72
2024/01/23 11:07:24;;;;;;;4.95;3.53;;;;;;;7.63;100.00;97735.13;5055491;28;20031;-72
2024/01/23 11:09:52;;;;;;;7.38;4.57;;;;;;;7.81;100.00;97733.38;5068358;28;20024;-72
2024/01/23 11:12:33;;;;;;;7.75;4.18;;;;;;;8.01;100.00;97735.00;5055373;28;20036;-72
2024/01/23 11:15:08;;;;;;;6.45;3.17;;;;;;;8.14;100.00;97723.94;5086224;28;20033;-72
2024/01/23 11:17:33;;;;;;;7.53;3.70;;;;;;;8.18;100.00;97717.59;5064629;28;20512;-72